Time;durP1;ratioP1;P1;durP2;ratioP2;P2;SDS_P1;SDS_P2;PMS_P1;PMS_P2;Temp;Humidity;BMP_temperature;BMP_pressure;BME280_temperature;BME280_humidity;BME280_pressure;Samples;Min_cycle;Max_cycle;Signal;HPM_P1;HPM_P2
2021/06/16 00:00:33;;;;;;;4.10;3.23;;;;;;;19.40;54.81;94869.53;5057017;28;20465;-67
2021/06/16 00:03:00;;;;;;;5.27;2.50;;;;;;;19.23;55.16;94871.03;5063513;28;20509;-70
2021/06/16 00:05:29;;;;;;;4.97;3.20;;;;;;;19.04;55.37;94857.25;5058403;28;20971;-70
2021/06/16 00:07:57;;;;;;;4.70;2.80;;;;;;;18.92;55.32;94867.69;5050118;28;20969;-67
2021/06/16 00:10:30;;;;;;;4.07;3.00;;;;;;;19.02;55.33;94864.75;5050365;28;20812;-68
2021/06/16 00:12:59;;;;;;;4.17;3.07;;;;;;;19.41;54.83;94871.13;5050471;28;20442;-68
2021/06/16 00:15:30;;;;;;;4.40;3.00;;;;;;;19.06;55.48;94862.25;5049675;28;20986;-69
2021/06/16 00:17:57;;;;;;;4.43;2.77;;;;;;;19.06;55.67;94865.72;5050638;28;20479;-68
2021/06/16 00:20:24;;;;;;;4.50;2.90;;;;;;;19.04;55.16;94851.16;5067227;28;20963;-71
2021/06/16 00:22:52;;;;;;;4.77;3.23;;;;;;;19.02;55.58;94853.34;5069936;28;20497;-67
2021/06/16 00:25:20;;;;;;;3.67;2.53;;;;;;;19.57;54.14;94869.56;5067806;28;20442;-66
2021/06/16 00:27:46;;;;;;;4.90;3.00;;;;;;;19.28;54.63;94856.84;5050453;28;20547;-66
2021/06/16 00:30:14;;;;;;;4.30;3.00;;;;;;;19.17;55.20;94856.38;5049386;28;20437;-67
2021/06/16 00:32:43;;;;;;;6.97;2.90;;;;;;;19.17;54.54;94840.44;5049712;28;20473;-68
2021/06/16 00:35:12;;;;;;;4.73;2.97;;;;;;;19.45;54.56;94866.75;5062516;28;20449;-69
2021/06/16 00:37:39;;;;;;;8.37;3.10;;;;;;;19.17;54.95;94867.00;5059476;28;20529;-69
2021/06/16 00:40:14;;;;;;;3.97;3.03;;;;;;;19.25;54.88;94856.69;5056528;28;20558;-68
2021/06/16 00:42:41;;;;;;;4.67;3.20;;;;;;;18.99;55.52;94853.97;5061395;28;20886;-68
2021/06/16 00:45:11;;;;;;;7.97;3.43;;;;;;;19.10;55.44;94848.03;5064931;28;20446;-66
2021/06/16 00:47:39;;;;;;;4.00;2.97;;;;;;;19.28;55.23;94850.75;5069865;28;20505;-71
2021/06/16 00:50:07;;;;;;;4.37;3.10;;;;;;;19.33;55.20;94846.09;5069145;28;20445;-68
2021/06/16 00:52:35;;;;;;;3.47;3.00;;;;;;;19.48;54.55;94828.91;5056366;28;20533;-69
2021/06/16 00:55:05;;;;;;;3.50;3.00;;;;;;;19.67;53.79;94842.69;5057728;28;20458;-68
2021/06/16 00:57:33;;;;;;;6.50;2.97;;;;;;;19.39;54.40;94838.75;5058208;28;20487;-70
2021/06/16 01:00:09;;;;;;;7.87;3.13;;;;;;;19.06;55.32;94844.47;5058358;28;20829;-69
2021/06/16 01:02:45;;;;;;;4.20;3.10;;;;;;;19.27;54.91;94827.94;5056332;28;20473;-69
2021/06/16 01:05:12;;;;;;;3.77;3.40;;;;;;;19.37;54.60;94831.09;5065029;28;20521;-70
2021/06/16 01:07:42;;;;;;;4.50;3.60;;;;;;;19.35;55.02;94829.84;5050049;28;20443;-69
2021/06/16 01:10:18;;;;;;;5.33;3.70;;;;;;;19.29;54.91;94831.84;5064043;28;21428;-70
2021/06/16 01:13:02;;;;;;;4.13;3.23;;;;;;;18.96;55.56;94834.13;5067387;28;20549;-70
2021/06/16 01:15:56;;;;;;;5.77;3.47;;;;;;;19.28;55.00;94832.16;5065829;28;20442;-71
2021/06/16 01:18:25;;;;;;;4.13;3.23;;;;;;;19.16;55.58;94825.56;5069399;28;20483;-68
2021/06/16 01:20:56;;;;;;;4.83;2.97;;;;;;;19.10;55.42;94834.00;5063694;28;20443;-68
2021/06/16 01:23:32;;;;;;;4.50;3.40;;;;;;;19.23;55.28;94827.00;5061255;28;20503;-68
2021/06/16 01:26:02;;;;;;;6.70;3.30;;;;;;;18.98;55.99;94825.84;5056617;28;20532;-68
2021/06/16 01:28:34;;;;;;;5.67;3.00;;;;;;;18.93;55.88;94824.13;5069572;28;20489;-69
2021/06/16 01:31:02;;;;;;;6.23;3.10;;;;;;;19.30;54.99;94827.31;5055856;28;20970;-69
2021/06/16 01:33:29;;;;;;;3.77;2.93;;;;;;;19.23;54.96;94837.63;5069526;28;20450;-70
2021/06/16 01:35:57;;;;;;;4.47;3.23;;;;;;;19.28;54.83;94818.88;5054606;28;20994;-69
2021/06/16 01:38:24;;;;;;;6.03;2.77;;;;;;;19.03;55.38;94820.41;5069073;28;20837;-70
2021/06/16 01:40:54;;;;;;;3.13;2.83;;;;;;;18.91;55.56;94826.31;5061785;28;20438;-68
2021/06/16 01:43:23;;;;;;;7.37;3.67;;;;;;;19.12;55.34;94819.31;5049421;28;20482;-71
2021/06/16 01:45:51;;;;;;;3.67;3.23;;;;;;;19.18;55.41;94818.06;5054890;28;20435;-71
2021/06/16 01:48:19;;;;;;;5.23;3.60;;;;;;;19.06;55.21;94822.44;5065570;28;20553;-68
2021/06/16 01:50:51;;;;;;;3.43;3.13;;;;;;;19.25;54.73;94822.16;5063621;28;20442;-69
2021/06/16 01:53:19;;;;;;;4.10;3.63;;;;;;;19.08;55.40;94818.38;5057648;28;20504;-69
2021/06/16 01:55:48;;;;;;;4.70;3.50;;;;;;;18.94;55.27;94820.34;5064373;28;20435;-66
2021/06/16 01:58:17;;;;;;;7.13;3.37;;;;;;;19.15;55.07;94820.56;5069027;28;20476;-71
2021/06/16 02:00:46;;;;;;;3.57;3.07;;;;;;;19.46;54.22;94820.47;5065509;28;20444;-70
2021/06/16 02:03:13;;;;;;;4.13;3.17;;;;;;;19.17;54.81;94816.53;5068305;28;20486;-71
2021/06/16 02:05:40;;;;;;;6.77;3.40;;;;;;;19.20;54.36;94823.06;5063972;28;20442;-69
2021/06/16 02:08:18;;;;;;;4.20;3.40;;;;;;;18.84;55.68;94822.53;5053535;28;20497;-71
2021/06/16 02:10:49;;;;;;;3.40;3.10;;;;;;;19.23;54.85;94822.47;5059368;28;20448;-73
2021/06/16 02:13:27;;;;;;;7.27;3.40;;;;;;;19.23;54.67;94821.69;5078514;28;20966;-72
2021/06/16 02:16:00;;;;;;;5.63;3.50;;;;;;;19.16;54.52;94808.84;5070332;28;20446;-68
2021/06/16 02:18:40;;;;;;;4.60;3.37;;;;;;;18.62;56.26;94823.41;5075994;28;20437;-68
2021/06/16 02:21:07;;;;;;;6.17;3.20;;;;;;;18.96;55.43;94812.06;5076152;28;20482;-70
2021/06/16 02:23:35;;;;;;;5.40;3.00;;;;;;;19.28;54.67;94824.19;5072613;28;20477;-69
2021/06/16 02:26:03;;;;;;;3.47;3.17;;;;;;;19.38;54.14;94826.56;5072901;28;20553;-69
2021/06/16 02:28:30;;;;;;;4.20;3.70;;;;;;;18.93;55.42;94826.78;5071621;28;20438;-69
2021/06/16 02:30:58;;;;;;;4.67;3.47;;;;;;;19.02;54.82;94832.88;5063188;28;20459;-69
2021/06/16 02:33:25;;;;;;;4.00;3.60;;;;;;;18.96;55.32;94823.50;5070842;28;20441;-69
2021/06/16 02:35:52;;;;;;;5.80;3.10;;;;;;;18.56;56.58;94810.56;5072120;28;20450;-69
2021/06/16 02:38:23;;;;;;;6.13;3.80;;;;;;;18.59;56.51;94831.97;5068948;28;20437;-73
2021/06/16 02:40:51;;;;;;;4.27;3.47;;;;;;;18.87;55.56;94821.91;5052184;28;20489;-71
2021/06/16 02:43:21;;;;;;;5.37;3.47;;;;;;;18.51;56.74;94831.94;5065475;28;20835;-68
2021/06/16 02:45:49;;;;;;;6.23;3.40;;;;;;;18.84;56.04;94831.28;5058176;28;20446;-75
2021/06/16 02:48:19;;;;;;;4.23;3.23;;;;;;;18.69;55.89;94818.41;5060101;28;20456;-73
2021/06/16 02:50:47;;;;;;;3.83;3.20;;;;;;;18.64;56.36;94821.22;5069178;28;20450;-72
2021/06/16 02:53:17;;;;;;;6.07;3.00;;;;;;;19.05;55.17;94823.50;5072196;28;20438;-68
2021/06/16 02:55:48;;;;;;;6.43;3.30;;;;;;;18.88;55.80;94826.13;5063813;28;20442;-72
2021/06/16 02:58:17;;;;;;;4.30;3.47;;;;;;;18.92;55.33;94827.84;5072060;28;20461;-71
2021/06/16 03:00:53;;;;;;;4.97;3.40;;;;;;;19.00;55.44;94829.75;5068370;28;20855;-70
2021/06/16 03:03:25;;;;;;;5.63;3.03;;;;;;;19.31;54.53;94829.69;5055482;28;20462;-71
2021/06/16 03:05:54;;;;;;;6.77;3.57;;;;;;;18.90;55.78;94832.69;5051417;28;20529;-70
2021/06/16 03:08:24;;;;;;;3.57;3.07;;;;;;;18.83;55.25;94813.00;5054326;28;20430;-67
2021/06/16 03:10:53;;;;;;;7.17;3.20;;;;;;;19.16;55.40;94828.22;5070579;28;20808;-67
2021/06/16 03:13:23;;;;;;;10.07;3.70;;;;;;;19.02;55.38;94835.53;5060418;28;20820;-69
2021/06/16 03:15:52;;;;;;;4.40;3.13;;;;;;;18.87;55.24;94841.28;5064398;28;20537;-68
2021/06/16 03:18:21;;;;;;;3.73;3.27;;;;;;;18.90;55.81;94839.88;5071258;28;20449;-71
2021/06/16 03:20:50;;;;;;;6.37;3.50;;;;;;;19.11;55.21;94846.97;5071252;28;20457;-71
2021/06/16 03:23:19;;;;;;;3.53;3.03;;;;;;;19.45;54.38;94848.16;5071339;28;20469;-68
2021/06/16 03:25:46;;;;;;;5.00;3.20;;;;;;;19.32;54.91;94849.06;5056899;28;20909;-68
2021/06/16 03:28:15;;;;;;;4.17;3.33;;;;;;;19.11;54.78;94841.66;5066928;28;20802;-70
2021/06/16 03:30:43;;;;;;;7.67;3.47;;;;;;;19.03;55.02;94849.63;5066372;28;20519;-69
2021/06/16 03:33:11;;;;;;;3.80;3.00;;;;;;;18.72;55.89;94839.03;5055792;28;20504;-72
2021/06/16 03:35:40;;;;;;;6.83;3.17;;;;;;;18.98;55.81;94847.88;5068891;28;20577;-70
2021/06/16 03:38:08;;;;;;;9.23;3.53;;;;;;;19.07;55.35;94839.91;5070533;28;20446;-71
2021/06/16 03:40:36;;;;;;;5.93;3.27;;;;;;;18.74;56.10;94852.78;5070269;28;20434;-68
2021/06/16 03:43:04;;;;;;;8.63;3.50;;;;;;;18.91;55.71;94852.84;5070218;28;20438;-70
2021/06/16 03:45:31;;;;;;;3.30;2.97;;;;;;;18.91;55.68;94847.53;5064946;28;20963;-72
2021/06/16 03:48:01;;;;;;;5.30;3.43;;;;;;;18.91;55.34;94852.06;5061958;28;20876;-69
2021/06/16 03:50:28;;;;;;;6.63;3.27;;;;;;;19.04;55.64;94853.81;5065927;28;20438;-68
2021/06/16 03:52:56;;;;;;;16.47;3.67;;;;;;;18.92;56.18;94853.63;5057650;28;20523;-69
2021/06/16 03:55:24;;;;;;;4.23;3.20;;;;;;;18.79;56.12;94860.63;5055927;28;20439;-72
2021/06/16 03:57:51;;;;;;;6.83;3.40;;;;;;;18.63;56.44;94856.03;5062873;28;20483;-71
2021/06/16 04:00:19;;;;;;;9.90;3.40;;;;;;;18.91;55.89;94863.47;5054646;28;20937;-69
2021/06/16 04:02:48;;;;;;;6.63;3.37;;;;;;;18.85;55.89;94859.38;5070320;28;20449;-69
2021/06/16 04:05:17;;;;;;;4.80;3.10;;;;;;;18.69;56.70;94860.09;5058910;28;20532;-68
2021/06/16 04:07:48;;;;;;;5.67;3.23;;;;;;;18.96;56.06;94860.66;5051346;28;20447;-69
2021/06/16 04:10:18;;;;;;;5.10;3.10;;;;;;;18.86;56.07;94865.47;5063920;28;20505;-72
2021/06/16 04:12:46;;;;;;;6.53;3.33;;;;;;;19.06;55.39;94867.56;5049748;28;20777;-71
2021/06/16 04:15:16;;;;;;;4.37;3.07;;;;;;;18.95;55.78;94875.06;5052295;28;20447;-68
2021/06/16 04:17:43;;;;;;;4.27;3.23;;;;;;;18.89;56.00;94870.97;5060799;28;20446;-68
2021/06/16 04:20:11;;;;;;;7.40;3.37;;;;;;;19.00;55.35;94882.88;5049402;28;20458;-70
2021/06/16 04:22:39;;;;;;;4.47;3.40;;;;;;;18.62;56.40;94881.78;5050240;28;20451;-72
2021/06/16 04:25:08;;;;;;;7.33;3.60;;;;;;;19.04;55.49;94872.41;5049480;28;20527;-74
2021/06/16 04:27:36;;;;;;;6.33;3.90;;;;;;;18.87;55.58;94875.78;5069381;28;20434;-69
2021/06/16 04:30:06;;;;;;;7.43;3.77;;;;;;;19.35;54.88;94867.03;5056859;28;20697;-67
2021/06/16 04:32:36;;;;;;;7.80;4.03;;;;;;;18.94;55.29;94870.06;5057473;28;20647;-68
2021/06/16 04:35:05;;;;;;;4.20;3.30;;;;;;;19.04;55.07;94878.50;5055648;28;20441;-71
2021/06/16 04:37:32;;;;;;;8.40;4.13;;;;;;;19.10;55.22;94853.34;5063811;28;20474;-71
2021/06/16 04:40:00;;;;;;;4.73;3.73;;;;;;;18.85;56.17;94867.34;5068928;28;20438;-71
2021/06/16 04:42:27;;;;;;;4.93;3.30;;;;;;;19.12;55.64;94867.13;5063331;28;20827;-70
2021/06/16 04:44:55;;;;;;;5.33;3.60;;;;;;;19.32;55.31;94872.97;5062276;28;20484;-73
2021/06/16 04:47:22;;;;;;;12.87;7.57;;;;;;;19.29;55.52;94857.63;5069614;28;20446;-73
2021/06/16 04:49:48;;;;;;;9.20;5.63;;;;;;;19.34;54.97;94870.78;5069854;28;20491;-74
2021/06/16 04:52:15;;;;;;;34.63;27.77;;;;;;;19.45;54.96;94877.38;5069445;28;20446;-74
2021/06/16 04:54:42;;;;;;;8.40;3.27;;;;;;;19.62;54.15;94869.41;5068971;28;20456;-74
2021/06/16 04:57:09;;;;;;;5.03;3.27;;;;;;;19.45;54.73;94867.50;5069381;28;20456;-74
2021/06/16 04:59:36;;;;;;;7.60;3.70;;;;;;;19.54;54.21;94865.69;5061687;28;20944;-73
2021/06/16 05:02:04;;;;;;;5.70;3.60;;;;;;;19.44;54.10;94867.81;5049577;28;20450;-73
2021/06/16 05:04:31;;;;;;;5.87;3.40;;;;;;;19.46;54.59;94873.63;5055348;28;20476;-73
2021/06/16 05:06:58;;;;;;;7.93;3.33;;;;;;;19.33;54.48;94879.84;5055479;28;20519;-70
2021/06/16 05:09:25;;;;;;;52.53;41.87;;;;;;;19.73;54.15;94865.34;5068541;28;20533;-76
2021/06/16 05:11:53;;;;;;;19.43;13.47;;;;;;;19.78;54.16;94886.47;5064695;28;20451;-73
2021/06/16 05:14:20;;;;;;;9.33;3.60;;;;;;;19.77;53.95;94884.91;5067408;28;20468;-70
2021/06/16 05:16:47;;;;;;;5.30;3.23;;;;;;;19.99;53.29;94884.75;5067318;28;20450;-72
2021/06/16 05:19:20;;;;;;;4.67;3.30;;;;;;;19.87;53.37;94868.66;5068715;28;20442;-72
2021/06/16 05:21:47;;;;;;;4.57;3.13;;;;;;;20.39;51.88;94880.00;5067925;28;20470;-75
2021/06/16 05:24:15;;;;;;;7.50;3.20;;;;;;;20.47;51.41;94874.69;5063369;28;20577;-72
2021/06/16 05:26:42;;;;;;;7.10;3.20;;;;;;;20.59;51.50;94861.50;5076569;28;20438;-71
2021/06/16 05:29:10;;;;;;;7.33;3.07;;;;;;;20.35;51.80;94873.75;5054663;28;20423;-74
2021/06/16 05:31:37;;;;;;;5.93;3.70;;;;;;;20.22;52.16;94869.44;5067646;28;20509;-72
2021/06/16 05:34:05;;;;;;;6.43;3.10;;;;;;;20.22;52.13;94880.06;5065926;28;20443;-71
2021/06/16 05:36:33;;;;;;;6.20;3.20;;;;;;;20.24;52.18;94868.00;5067892;28;20965;-70
2021/06/16 05:39:00;;;;;;;6.73;3.90;;;;;;;20.45;52.05;94876.88;5069883;28;20440;-71
2021/06/16 05:41:28;;;;;;;8.97;3.43;;;;;;;20.59;51.65;94874.00;5059952;28;20242;-70
2021/06/16 05:43:54;;;;;;;6.23;3.40;;;;;;;20.44;51.34;94872.66;5071417;28;20465;-73
2021/06/16 05:46:21;;;;;;;3.53;3.23;;;;;;;20.65;51.61;94889.50;5073533;28;20820;-73
2021/06/16 05:48:48;;;;;;;6.83;3.50;;;;;;;20.87;51.37;94881.28;5072608;28;20203;-71
2021/06/16 05:51:16;;;;;;;5.67;3.23;;;;;;;21.14;50.83;94885.41;5073384;28;20203;-71
2021/06/16 05:53:43;;;;;;;6.47;3.40;;;;;;;20.77;51.74;94884.28;5057545;28;20435;-69
2021/06/16 05:56:10;;;;;;;4.73;3.17;;;;;;;20.75;51.40;94889.16;5060286;28;20533;-69
2021/06/16 05:58:37;;;;;;;7.30;2.90;;;;;;;20.62;52.19;94895.47;5073173;28;20200;-69
2021/06/16 06:01:05;;;;;;;10.80;3.27;;;;;;;20.82;51.55;94881.44;5072769;28;20441;-70
2021/06/16 06:03:32;;;;;;;8.20;3.10;;;;;;;20.43;51.90;94887.06;5072984;28;20238;-69
2021/06/16 06:05:58;;;;;;;8.90;3.20;;;;;;;20.45;52.04;94900.06;5061625;28;20578;-68
2021/06/16 06:08:25;;;;;;;14.70;3.70;;;;;;;21.07;50.82;94891.25;5052549;28;20211;-70
2021/06/16 06:10:53;;;;;;;8.10;3.30;;;;;;;21.06;50.71;94895.00;5052501;28;20197;-69
2021/06/16 06:13:20;;;;;;;6.47;3.60;;;;;;;21.07;51.23;94901.13;5066920;28;20219;-69
2021/06/16 06:15:47;;;;;;;9.43;3.73;;;;;;;21.04;50.65;94901.75;5059819;28;20655;-69
2021/06/16 06:18:14;;;;;;;6.43;3.33;;;;;;;21.01;50.71;94900.53;5059248;28;20208;-75
2021/06/16 06:20:41;;;;;;;11.43;3.53;;;;;;;21.21;49.93;94896.34;5065214;28;20200;-71
2021/06/16 06:23:08;;;;;;;21.47;5.33;;;;;;;21.48;49.52;94901.22;5064427;28;20203;-70
2021/06/16 06:25:36;;;;;;;23.67;6.13;;;;;;;21.64;49.82;94909.44;5057886;28;20599;-70
2021/06/16 06:28:04;;;;;;;17.10;5.03;;;;;;;21.81;49.87;94901.34;5073325;28;20196;-71
2021/06/16 06:30:30;;;;;;;4.60;3.20;;;;;;;21.98;49.20;94896.66;5055458;28;20217;-71
2021/06/16 06:32:57;;;;;;;7.07;3.00;;;;;;;21.93;48.59;94896.09;5052416;28;20220;-68
2021/06/16 06:35:24;;;;;;;6.27;3.07;;;;;;;21.82;49.13;94913.59;5051996;28;20283;-72
2021/06/16 06:37:51;;;;;;;5.03;2.90;;;;;;;21.21;49.77;94914.22;5063127;28;20208;-70
2021/06/16 06:40:18;;;;;;;6.30;3.40;;;;;;;21.32;50.27;94910.09;5068896;28;20253;-73
2021/06/16 06:42:45;;;;;;;6.20;3.73;;;;;;;21.41;49.84;94926.81;5060924;28;20203;-70
2021/06/16 06:45:12;;;;;;;6.90;3.40;;;;;;;21.27;50.40;94931.59;5071518;28;20215;-72
2021/06/16 06:47:40;;;;;;;5.23;3.43;;;;;;;21.44;50.54;94932.28;5065500;28;20279;-70
2021/06/16 06:50:13;;;;;;;10.87;3.60;;;;;;;21.07;50.47;94907.25;5051229;28;20295;-69
2021/06/16 06:52:43;;;;;;;7.67;3.23;;;;;;;21.28;50.32;94927.81;5058768;28;20234;-68
2021/06/16 06:55:12;;;;;;;7.07;3.47;;;;;;;20.86;51.45;94930.31;5059146;28;20204;-69
2021/06/16 06:57:40;;;;;;;5.60;3.60;;;;;;;20.75;51.81;94933.63;5071381;28;20276;-71
2021/06/16 07:00:09;;;;;;;8.43;3.20;;;;;;;20.99;51.47;94936.53;5071979;28;20204;-70
2021/06/16 07:02:37;;;;;;;14.47;4.40;;;;;;;21.21;51.28;94938.22;5057492;28;20714;-69
2021/06/16 07:05:05;;;;;;;10.90;3.83;;;;;;;21.27;50.76;94936.94;5060944;28;20211;-70
2021/06/16 07:07:32;;;;;;;7.93;3.97;;;;;;;21.33;50.47;94936.41;5061837;28;20192;-71
2021/06/16 07:09:58;;;;;;;6.30;3.33;;;;;;;21.18;50.77;94939.66;5071394;28;20196;-69
2021/06/16 07:12:25;;;;;;;4.87;3.43;;;;;;;21.90;50.01;94939.41;5064080;28;20196;-69
2021/06/16 07:14:55;;;;;;;9.00;3.87;;;;;;;21.63;49.86;94927.31;5065503;28;20613;-71
2021/06/16 07:17:23;;;;;;;7.60;3.47;;;;;;;22.05;49.16;94925.47;5057200;28;20638;-70
2021/06/16 07:19:51;;;;;;;7.30;3.57;;;;;;;21.97;49.26;94928.97;5058257;28;20566;-69
2021/06/16 07:22:19;;;;;;;6.70;3.20;;;;;;;22.15;48.92;94925.84;5066650;28;20239;-69
2021/06/16 07:24:46;;;;;;;10.40;4.03;;;;;;;21.97;49.36;94927.09;5053686;28;20216;-68
2021/06/16 07:27:14;;;;;;;6.07;3.63;;;;;;;22.09;49.34;94916.50;5054005;28;20204;-72
2021/06/16 07:29:42;;;;;;;9.13;3.43;;;;;;;22.37;49.04;94916.72;5053221;28;20196;-71
2021/06/16 07:32:09;;;;;;;6.07;4.10;;;;;;;23.04;47.32;94917.16;5064716;28;20261;-69
2021/06/16 07:34:36;;;;;;;8.63;3.30;;;;;;;23.31;46.98;94901.56;5051131;28;20204;-69
2021/06/16 07:37:04;;;;;;;5.90;3.37;;;;;;;23.35;47.74;94902.47;5065744;28;20219;-69
2021/06/16 07:39:31;;;;;;;6.10;3.23;;;;;;;23.82;46.51;94908.88;5070862;28;20206;-68
2021/06/16 07:41:58;;;;;;;4.83;3.00;;;;;;;23.82;46.14;94908.88;5070759;28;20187;-70
2021/06/16 07:44:29;;;;;;;6.40;2.73;;;;;;;23.60;45.78;94898.66;5071121;28;20208;-69
2021/06/16 07:46:58;;;;;;;4.37;2.97;;;;;;;23.98;45.54;94907.03;5070835;28;20246;-69
2021/06/16 07:49:25;;;;;;;4.17;3.10;;;;;;;23.75;44.35;94897.97;5070612;28;20214;-69
2021/06/16 07:51:52;;;;;;;4.93;3.07;;;;;;;23.83;45.57;94902.41;5070478;28;20198;-71
2021/06/16 07:54:19;;;;;;;3.93;2.93;;;;;;;23.94;44.88;94892.81;5064464;28;20249;-70
2021/06/16 07:56:46;;;;;;;5.60;3.17;;;;;;;23.76;44.86;94897.63;5050979;28;20557;-72
2021/06/16 07:59:15;;;;;;;7.20;3.63;;;;;;;23.84;45.87;94898.63;5068803;28;20202;-69
2021/06/16 08:01:43;;;;;;;6.63;3.53;;;;;;;23.70;46.22;94898.22;5069458;28;20192;-70
2021/06/16 08:04:10;;;;;;;7.87;3.10;;;;;;;23.44;45.88;94911.16;5070097;28;20284;-71
2021/06/16 08:06:37;;;;;;;8.93;3.40;;;;;;;23.94;45.81;94914.22;5056423;28;20195;-71
2021/06/16 08:09:04;;;;;;;5.20;3.30;;;;;;;24.27;44.91;94912.09;5070193;28;20192;-71
2021/06/16 08:11:31;;;;;;;10.37;3.23;;;;;;;24.38;46.04;94920.47;5068790;28;20661;-70
2021/06/16 08:13:58;;;;;;;10.80;3.43;;;;;;;24.32;45.80;94919.94;5070464;28;20257;-69
2021/06/16 08:16:25;;;;;;;4.10;3.07;;;;;;;24.38;45.15;94920.47;5070506;28;20203;-70
2021/06/16 08:18:53;;;;;;;5.30;3.17;;;;;;;24.40;45.10;94916.31;5055622;28;20199;-69
2021/06/16 08:21:20;;;;;;;6.53;3.10;;;;;;;24.35;44.96;94929.94;5069835;28;20211;-70
2021/06/16 08:23:47;;;;;;;5.20;2.97;;;;;;;24.30;44.80;94927.53;5069044;28;20310;-73
2021/06/16 08:26:15;;;;;;;8.10;3.00;;;;;;;24.26;44.43;94918.59;5070576;28;20211;-71
2021/06/16 08:28:43;;;;;;;6.70;3.20;;;;;;;24.52;44.29;94929.66;5053620;28;20247;-69
2021/06/16 08:31:10;;;;;;;5.97;2.80;;;;;;;24.59;43.54;94935.22;5049507;28;20206;-69
2021/06/16 08:33:39;;;;;;;7.90;3.40;;;;;;;24.79;43.62;94928.88;5064244;28;20200;-70
2021/06/16 08:36:07;;;;;;;7.53;3.43;;;;;;;24.71;44.09;94927.13;5070155;28;20205;-70
2021/06/16 08:38:35;;;;;;;5.23;3.20;;;;;;;24.60;44.58;94947.47;5067660;28;20699;-69
2021/06/16 08:41:05;;;;;;;4.97;3.33;;;;;;;24.36;43.48;94942.19;5050517;28;20189;-69
2021/06/16 08:43:42;;;;;;;4.17;2.60;;;;;;;24.23;42.56;94937.25;5065417;28;20188;-68
2021/06/16 08:46:12;;;;;;;3.03;2.80;;;;;;;24.26;44.86;94942.69;5061100;28;20314;-68
2021/06/16 08:48:40;;;;;;;4.63;2.83;;;;;;;24.39;44.39;94944.22;5050846;28;20248;-70
2021/06/16 08:51:09;;;;;;;5.17;2.90;;;;;;;24.60;44.40;94926.03;5062145;28;21045;-68
2021/06/16 08:53:36;;;;;;;4.60;3.30;;;;;;;24.27;45.15;94946.91;5063500;28;20684;-68
2021/06/16 08:56:03;;;;;;;5.73;3.27;;;;;;;24.50;43.68;94942.63;5070007;28;20207;-67
2021/06/16 08:58:40;;;;;;;5.33;3.10;;;;;;;23.94;43.51;94949.00;5070216;28;20192;-68
2021/06/16 09:01:10;;;;;;;4.13;3.00;;;;;;;24.32;43.39;94957.41;5069554;28;20291;-69
2021/06/16 09:03:38;;;;;;;5.93;3.20;;;;;;;24.30;44.33;94948.16;5069419;28;20234;-69
2021/06/16 09:06:06;;;;;;;4.17;2.80;;;;;;;23.83;43.93;94950.59;5050313;28;20835;-71
2021/06/16 09:09:09;;;;;;;4.93;3.27;;;;;;;23.59;44.00;94955.97;5063403;28;20188;-70
2021/06/16 09:11:39;;;;;;;4.07;3.07;;;;;;;23.84;43.96;94955.59;5063737;28;20293;-69
2021/06/16 09:14:11;;;;;;;3.50;3.20;;;;;;;24.09;43.34;94959.03;5068979;28;20196;-69
2021/06/16 09:16:38;;;;;;;2.97;2.77;;;;;;;24.06;42.68;94954.34;5054651;28;20200;-68
2021/06/16 09:19:17;;;;;;;4.83;3.10;;;;;;;24.53;42.50;94955.31;5048948;28;20201;-68
2021/06/16 09:21:45;;;;;;;3.30;2.77;;;;;;;24.96;42.38;94955.34;5049489;28;20718;-69
2021/06/16 09:24:12;;;;;;;3.77;3.00;;;;;;;24.54;41.71;94948.81;5063085;28;20692;-69
2021/06/16 09:26:43;;;;;;;8.37;2.97;;;;;;;24.93;41.09;94953.34;5062587;28;20597;-70
2021/06/16 09:29:10;;;;;;;4.53;2.83;;;;;;;25.19;41.64;94950.19;5049092;28;20200;-69
2021/06/16 09:31:42;;;;;;;4.13;2.80;;;;;;;25.48;39.62;94948.97;5048905;28;20232;-68
2021/06/16 09:34:14;;;;;;;3.63;2.47;;;;;;;25.70;40.39;94953.72;5053641;28;20196;-70
2021/06/16 09:36:52;;;;;;;6.23;4.33;;;;;;;25.35;41.28;94953.63;5069146;28;20195;-69
2021/06/16 09:39:23;;;;;;;2.70;2.50;;;;;;;25.28;40.30;94960.72;5068627;28;20385;-70
2021/06/16 09:41:54;;;;;;;4.97;3.10;;;;;;;25.99;39.23;94964.75;5068988;28;20700;-71
2021/06/16 09:44:37;;;;;;;7.03;2.63;;;;;;;26.12;38.48;94968.13;5068928;28;20192;-70
2021/06/16 09:47:19;;;;;;;2.60;2.40;;;;;;;25.94;38.14;94956.19;5069390;28;20212;-69
2021/06/16 09:50:03;;;;;;;2.80;2.20;;;;;;;26.21;38.06;94966.00;5069096;28;20225;-70
2021/06/16 09:52:39;;;;;;;2.87;2.40;;;;;;;26.10;37.63;94970.38;5063341;28;20254;-71
2021/06/16 09:55:26;;;;;;;2.63;2.13;;;;;;;26.03;37.82;94962.16;5061356;28;20275;-71
2021/06/16 09:58:17;;;;;;;4.97;2.83;;;;;;;26.08;37.88;94971.84;5056948;28;20199;-70
2021/06/16 10:01:02;;;;;;;4.97;3.60;;;;;;;26.17;38.09;94975.91;5069013;28;20301;-71
2021/06/16 10:03:32;;;;;;;2.47;2.10;;;;;;;26.18;37.15;94966.72;5057530;28;20197;-69
2021/06/16 10:06:03;;;;;;;3.10;2.60;;;;;;;26.11;38.73;94971.94;5067070;28;20231;-68
2021/06/16 10:08:38;;;;;;;4.50;2.90;;;;;;;26.17;38.26;94970.53;5065271;28;20196;-70
2021/06/16 10:11:08;;;;;;;5.97;3.30;;;;;;;26.52;38.11;94973.94;5048780;28;20345;-70
2021/06/16 10:13:35;;;;;;;9.80;4.10;;;;;;;26.81;37.66;94973.41;5051277;28;20218;-69
2021/06/16 10:16:03;;;;;;;4.77;2.73;;;;;;;26.88;37.06;94978.13;5059505;28;20266;-69
2021/06/16 10:18:33;;;;;;;7.37;3.43;;;;;;;26.68;37.40;94963.13;5049497;28;20193;-72
2021/06/16 10:21:01;;;;;;;3.73;2.77;;;;;;;26.48;37.87;94964.25;5048421;28;20617;-71
2021/06/16 10:23:28;;;;;;;2.67;2.47;;;;;;;26.80;36.76;94963.78;5063367;28;20203;-70
2021/06/16 10:26:04;;;;;;;3.40;3.10;;;;;;;27.17;37.19;94968.66;5063902;28;20207;-70
2021/06/16 10:28:47;;;;;;;3.27;2.60;;;;;;;26.84;37.54;94966.53;5052083;28;20223;-72
2021/06/16 10:31:18;;;;;;;3.60;2.77;;;;;;;26.47;37.86;94966.19;5072044;28;20288;-69
2021/06/16 10:33:55;;;;;;;4.97;3.13;;;;;;;27.06;38.40;94973.88;5070203;28;20702;-69
2021/06/16 10:36:22;;;;;;;5.30;2.90;;;;;;;27.28;36.17;94961.56;5061378;28;20195;-71
2021/06/16 10:38:58;;;;;;;5.03;2.80;;;;;;;27.46;36.05;94965.34;5067488;28;20192;-72
2021/06/16 10:41:37;;;;;;;4.30;2.73;;;;;;;27.30;35.95;94972.75;5064449;28;20210;-70
2021/06/16 10:44:16;;;;;;;4.93;2.60;;;;;;;27.48;36.96;94973.84;5064320;28;20250;-70
2021/06/16 10:46:55;;;;;;;2.70;2.10;;;;;;;27.31;35.91;94966.25;5052265;28;20603;-69
2021/06/16 10:49:47;;;;;;;7.83;2.50;;;;;;;27.55;35.31;94968.56;5059347;28;20199;-72
2021/06/16 10:52:16;;;;;;;2.57;2.37;;;;;;;27.77;35.39;94968.53;5067768;28;20201;-73
2021/06/16 10:55:00;;;;;;;2.90;2.00;;;;;;;27.50;35.23;94952.72;5062198;28;20184;-71
2021/06/16 10:57:28;;;;;;;1.90;1.80;;;;;;;27.42;35.63;94965.28;5069563;28;20665;-72
2021/06/16 11:00:00;;;;;;;9.43;2.37;;;;;;;27.58;35.17;94962.47;5059932;28;20189;-72
2021/06/16 11:02:34;;;;;;;4.70;1.90;;;;;;;27.28;34.34;94975.03;5052449;28;20708;-71
2021/06/16 11:05:21;;;;;;;2.77;1.83;;;;;;;27.26;33.74;94977.28;5068809;28;20192;-72
2021/06/16 11:07:49;;;;;;;1.83;1.70;;;;;;;27.14;34.40;94970.16;5063402;28;20205;-71
2021/06/16 11:10:16;;;;;;;3.73;2.10;;;;;;;27.00;35.08;94981.47;5067478;28;20674;-70
2021/06/16 11:12:50;;;;;;;2.43;2.10;;;;;;;26.71;35.62;94963.25;5055165;28;20247;-72
2021/06/16 11:15:23;;;;;;;4.03;2.33;;;;;;;27.22;35.93;94976.44;5068962;28;20245;-71
2021/06/16 11:17:52;;;;;;;3.83;2.03;;;;;;;27.09;35.41;94975.06;5070144;28;20223;-69
2021/06/16 11:20:27;;;;;;;2.17;1.70;;;;;;;26.75;35.02;94961.38;5056950;28;20200;-72
2021/06/16 11:22:56;;;;;;;7.70;2.30;;;;;;;26.92;35.30;94978.97;5070760;28;20648;-70
2021/06/16 11:25:29;;;;;;;3.23;1.70;;;;;;;26.85;35.97;94979.63;5056733;28;20582;-71
2021/06/16 11:28:08;;;;;;;2.63;2.20;;;;;;;27.06;35.51;94981.94;5061781;28;20197;-71
2021/06/16 11:30:47;;;;;;;4.47;2.13;;;;;;;27.04;35.46;94976.91;5058099;28;20565;-70
2021/06/16 11:33:14;;;;;;;3.27;2.30;;;;;;;26.54;36.35;94979.75;5070669;28;20231;-70
2021/06/16 11:35:55;;;;;;;6.10;2.07;;;;;;;26.75;36.22;94974.06;5060138;28;20206;-69
2021/06/16 11:38:22;;;;;;;2.33;2.13;;;;;;;26.81;36.30;94976.09;5069451;28;20714;-72
2021/06/16 11:41:02;;;;;;;3.53;2.00;;;;;;;26.69;36.63;94970.88;5070883;28;20192;-70
2021/06/16 11:43:42;;;;;;;5.27;2.20;;;;;;;26.78;36.60;94974.13;5064415;28;20199;-71